| time (UTC) | temp F | wind direction | speed knots | gust knots | rain 1hr in | rain 24hr in | rain mn in | humidity % | barometer mb |
| 20260504081057 | 60 | 59 | 0.0 | 0.0 | 0.00 | 0.00 | 0.00 | 74 | 1017.8 |
| 20260504080552 | 60 | 5 | 0.0 | 0.0 | 0.00 | 0.00 | 0.00 | 73 | 1017.8 |
| 20260504045712 | 60 | 288 | 0.0 | 0.0 | 0.00 | 0.00 | 0.00 | 89 | 1018.7 |
| 20260504045203 | 60 | 288 | 0.0 | 0.0 | 0.00 | 0.00 | 0.00 | 89 | 1018.7 |
| 20260504044651 | 60 | 288 | 0.0 | 0.0 | 0.00 | 0.00 | 0.00 | 88 | 1018.7 |
| 20260504043524 | 61 | 288 | 0.0 | 0.0 | 0.00 | 0.00 | 0.00 | 88 | 1018.6 |
| 20260504043017 | 61 | 288 | 0.0 | 0.0 | 0.00 | 0.00 | 0.00 | 88 | 1018.6 |
| 20260504042520 | 61 | 288 | 0.0 | 0.0 | 0.00 | 0.00 | 0.00 | 88 | 1018.5 |
| 20260504042020 | 61 | 288 | 0.0 | 0.0 | 0.00 | 0.00 | 0.00 | 87 | 1018.5 |
| 20260504040852 | 62 | 288 | 0.0 | 0.0 | 0.00 | 0.00 | 0.00 | 86 | 1018.5 |
| 20260504040358 | 62 | 288 | 0.0 | 0.0 | 0.00 | 0.00 | 0.00 | 86 | 1018.5 |
| 20260504035856 | 62 | 288 | 0.0 | 0.0 | 0.00 | 0.00 | 0.00 | 86 | 1018.6 |
| 20260504035340 | 63 | 288 | 0.0 | 0.0 | 0.00 | 0.00 | 0.00 | 85 | 1018.5 |
| 20260504034836 | 63 | 288 | 0.0 | 0.0 | 0.00 | 0.00 | 0.00 | 85 | 1018.5 |
| 20260504034325 | 63 | 288 | 0.0 | 0.0 | 0.00 | 0.00 | 0.00 | 84 | 1018.6 |
| 20260504033145 | 64 | 288 | 0.0 | 0.0 | 0.00 | 0.00 | 0.00 | 82 | 1018.7 |
| 20260504032654 | 64 | 288 | 0.0 | 0.0 | 0.00 | 0.00 | 0.00 | 82 | 1018.7 |
| 20260504032203 | 64 | 288 | 0.0 | 0.0 | 0.00 | 0.00 | 0.00 | 82 | 1018.6 |
| 20260504031712 | 64 | 263 | 0.0 | 0.0 | 0.00 | 0.00 | 0.00 | 81 | 1018.6 |
| 20260504030611 | 65 | 267 | 0.0 | 0.0 | 0.00 | 0.00 | 0.00 | 80 | 1018.6 |
| 20260504025604 | 65 | 239 | 0.0 | 0.0 | 0.00 | 0.00 | 0.00 | 80 | 1018.5 |
| 20260504025107 | 65 | 239 | 0.0 | 0.0 | 0.00 | 0.00 | 0.00 | 80 | 1018.6 |
| 20260504024554 | 65 | 239 | 0.0 | 0.0 | 0.00 | 0.00 | 0.00 | 81 | 1018.5 |
| 20260504023401 | 65 | 239 | 0.0 | 0.0 | 0.00 | 0.00 | 0.00 | 81 | 1018.4 |
| 20260504022854 | 65 | 239 | 0.0 | 0.0 | 0.00 | 0.00 | 0.00 | 81 | 1018.4 |
| 20260504022343 | 65 | 239 | 0.0 | 0.0 | 0.00 | 0.00 | 0.00 | 81 | 1018.4 |
| 20260504021830 | 66 | 239 | 0.0 | 0.0 | 0.00 | 0.00 | 0.00 | 81 | 1018.4 |
| 20260504021326 | 66 | 239 | 0.0 | 0.0 | 0.00 | 0.00 | 0.00 | 81 | 1018.4 |
| 20260504020821 | 66 | 239 | 0.0 | 0.0 | 0.00 | 0.00 | 0.00 | 80 | 1018.3 |
| 20260504020312 | 66 | 239 | 0.0 | 0.0 | 0.00 | 0.00 | 0.00 | 80 | 1018.3 |
| 20260504015759 | 67 | 239 | 0.0 | 0.0 | 0.00 | 0.00 | 0.00 | 79 | 1018.2 |
| 20260504015243 | 67 | 239 | 0.0 | 0.0 | 0.00 | 0.00 | 0.00 | 79 | 1018.1 |
| 20260504014727 | 67 | 239 | 0.0 | 0.0 | 0.00 | 0.00 | 0.00 | 78 | 1018.1 |
| 20260504014216 | 68 | 239 | 0.0 | 0.0 | 0.00 | 0.00 | 0.00 | 77 | 1018.1 |
| 20260504013659 | 68 | 239 | 0.0 | 0.0 | 0.00 | 0.00 | 0.00 | 77 | 1018.0 |
| 20260504013141 | 68 | 239 | 0.0 | 0.0 | 0.00 | 0.00 | 0.00 | 76 | 1017.9 |
| 20260504012627 | 68 | 239 | 0.0 | 0.0 | 0.00 | 0.00 | 0.00 | 75 | 1017.9 |
| 20260504012110 | 69 | 239 | 0.0 | 0.9 | 0.00 | 0.00 | 0.00 | 75 | 1017.8 |
| 20260504011558 | 69 | 225 | 0.0 | 0.9 | 0.00 | 0.00 | 0.00 | 74 | 1017.7 |
| 20260504011054 | 69 | 225 | 0.0 | 0.9 | 0.00 | 0.00 | 0.00 | 74 | 1017.6 |
| 20260504005922 | 69 | 225 | 0.0 | 0.9 | 0.00 | 0.00 | 0.00 | 73 | 1017.6 |
| 20260504005405 | 70 | 217 | 0.0 | 0.0 | 0.00 | 0.00 | 0.00 | 73 | 1017.6 |
| 20260504004851 | 70 | 217 | 0.0 | 3.5 | 0.00 | 0.00 | 0.00 | 72 | 1017.5 |
| 20260504003748 | 70 | 202 | 0.9 | 4.3 | 0.00 | 0.00 | 0.00 | 71 | 1017.5 |
| 20260504003254 | 70 | 207 | 0.9 | 4.3 | 0.00 | 0.00 | 0.00 | 70 | 1017.5 |
| 20260504002743 | 71 | 238 | 0.9 | 6.1 | 0.00 | 0.00 | 0.00 | 70 | 1017.4 |
| 20260504002230 | 71 | 217 | 0.9 | 6.1 | 0.00 | 0.00 | 0.00 | 70 | 1017.4 |
| 20260504001727 | 71 | 217 | 0.9 | 6.1 | 0.00 | 0.00 | 0.00 | 69 | 1017.4 |
| 20260504000604 | 71 | 223 | 0.9 | 5.2 | 0.00 | 0.00 | 0.00 | 68 | 1017.3 |
| 20260504000050 | 71 | 242 | 0.9 | 5.2 | 0.00 | 0.00 | 0.00 | 67 | 1017.3 |
| 20260503234918 | 72 | 227 | 0.9 | 5.2 | 0.00 | 0.00 | 0.00 | 64 | 1017.3 |
| 20260503234359 | 72 | 258 | 0.9 | 5.2 | 0.00 | 0.00 | 0.00 | 66 | 1017.3 |
| 20260503233841 | 72 | 224 | 0.9 | 4.3 | 0.00 | 0.00 | 0.00 | 64 | 1017.3 |
| 20260503233339 | 72 | 192 | 0.9 | 6.1 | 0.00 | 0.00 | 0.00 | 65 | 1017.1 |
| 20260503232157 | 72 | 213 | 1.7 | 6.1 | 0.00 | 0.00 | 0.00 | 63 | 1017.2 |
| 20260503231641 | 72 | 249 | 1.7 | 6.1 | 0.00 | 0.00 | 0.00 | 64 | 1017.3 |
| 20260503231134 | 72 | 214 | 1.7 | 7.8 | 0.00 | 0.00 | 0.00 | 64 | 1017.2 |
| 20260503230619 | 72 | 233 | 0.9 | 7.8 | 0.00 | 0.00 | 0.00 | 64 | 1017.2 |
| 20260503230118 | 72 | 250 | 1.7 | 8.7 | 0.00 | 0.00 | 0.00 | 64 | 1017.2 |
| 20260503225620 | 72 | 236 | 2.6 | 8.7 | 0.00 | 0.00 | 0.00 | 62 | 1017.1 |
| 20260503225126 | 72 | 211 | 2.6 | 8.7 | 0.00 | 0.00 | 0.00 | 65 | 1017.0 |
| 20260503224005 | 73 | 159 | 2.6 | 7.0 | 0.00 | 0.00 | 0.00 | 62 | 1017.1 |
| 20260503223511 | 73 | 233 | 1.7 | 8.7 | 0.00 | 0.00 | 0.00 | 60 | 1017.1 |
| 20260503222954 | 73 | 205 | 2.6 | 8.7 | 0.00 | 0.00 | 0.00 | 61 | 1017.0 |
| 20260503222451 | 73 | 229 | 3.5 | 8.7 | 0.00 | 0.00 | 0.00 | 59 | 1017.1 |
| 20260503221946 | 73 | 171 | 2.6 | 8.7 | 0.00 | 0.00 | 0.00 | 60 | 1017.1 |
| 20260503221443 | 73 | 188 | 2.6 | 7.0 | 0.00 | 0.00 | 0.00 | 60 | 1017.1 |
| 20260503220950 | 73 | 235 | 2.6 | 8.7 | 0.00 | 0.00 | 0.00 | 59 | 1017.1 |
| 20260503220442 | 73 | 159 | 2.6 | 8.7 | 0.00 | 0.00 | 0.00 | 60 | 1017.3 |
| 20260503215939 | 73 | 211 | 3.5 | 8.7 | 0.00 | 0.00 | 0.00 | 63 | 1017.3 |
| 20260503215446 | 73 | 217 | 3.5 | 8.7 | 0.00 | 0.00 | 0.00 | 62 | 1017.4 |
| 20260503214941 | 73 | 204 | 3.5 | 11.3 | 0.00 | 0.00 | 0.00 | 61 | 1017.4 |
| 20260503214435 | 73 | 178 | 3.5 | 11.3 | 0.00 | 0.00 | 0.00 | 60 | 1017.5 |
| 20260503213927 | 73 | 213 | 3.5 | 11.3 | 0.00 | 0.00 | 0.00 | 60 | 1017.4 |
| 20260503213409 | 73 | 194 | 3.5 | 11.3 | 0.00 | 0.00 | 0.00 | 59 | 1017.5 |
| 20260503212914 | 74 | 250 | 2.6 | 7.8 | 0.00 | 0.00 | 0.00 | 59 | 1017.5 |
| 20260503212411 | 74 | 212 | 2.6 | 8.7 | 0.00 | 0.00 | 0.00 | 59 | 1017.5 |
| 20260503211902 | 73 | 181 | 2.6 | 8.7 | 0.00 | 0.00 | 0.00 | 60 | 1017.5 |
| 20260503211345 | 73 | 196 | 4.3 | 8.7 | 0.00 | 0.00 | 0.00 | 60 | 1017.5 |
| 20260503210843 | 74 | 207 | 3.5 | 8.7 | 0.00 | 0.00 | 0.00 | 60 | 1017.6 |
| 20260503210327 | 74 | 196 | 2.6 | 8.7 | 0.00 | 0.00 | 0.00 | 60 | 1017.6 |
| 20260503205827 | 74 | 212 | 2.6 | 8.7 | 0.00 | 0.00 | 0.00 | 58 | 1017.6 |
| 20260503203403 | 75 | 208 | 1.7 | 7.8 | 0.00 | 0.00 | 0.00 | 57 | 1017.9 |
| 20260503202858 | 75 | 215 | 2.6 | 7.8 | 0.00 | 0.00 | 0.00 | 56 | 1018.0 |
| 20260503202340 | 74 | 220 | 3.5 | 8.7 | 0.00 | 0.00 | 0.00 | 58 | 1018.0 |
| 20260503201849 | 74 | 194 | 3.5 | 8.7 | 0.00 | 0.00 | 0.00 | 57 | 1018.1 |
| 20260503201352 | 75 | 222 | 3.5 | 10.4 | 0.00 | 0.00 | 0.00 | 56 | 1018.2 |
| 20260503195547 | 76 | 240 | 1.7 | 7.0 | 0.00 | 0.00 | 0.00 | 53 | 1018.5 |
| 20260503195033 | 77 | 202 | 1.7 | 7.0 | 0.00 | 0.00 | 0.00 | 51 | 1018.5 |
| 20260503194525 | 78 | 171 | 0.9 | 5.2 | 0.00 | 0.00 | 0.00 | 50 | 1018.7 |
| 20260503194030 | 78 | 166 | 0.0 | 2.6 | 0.00 | 0.00 | 0.00 | 44 | 1018.8 |
| 20260503193514 | 78 | 355 | 0.0 | 2.6 | 0.00 | 0.00 | 0.00 | 44 | 1018.8 |
| 20260503193022 | 77 | 5 | 0.0 | 0.9 | 0.00 | 0.00 | 0.00 | 45 | 1018.8 |
| 20260503192518 | 77 | 209 | 0.0 | 2.6 | 0.00 | 0.00 | 0.00 | 43 | 1018.9 |
| 20260503192027 | 77 | 224 | 0.0 | 7.0 | 0.00 | 0.00 | 0.00 | 45 | 1019.0 |
| 20260503191518 | 77 | 313 | 0.9 | 7.0 | 0.00 | 0.00 | 0.00 | 44 | 1019.1 |
| 20260503191026 | 77 | 294 | 0.9 | 7.0 | 0.00 | 0.00 | 0.00 | 45 | 1019.2 |
| 20260503190530 | 77 | 97 | 1.7 | 7.0 | 0.00 | 0.00 | 0.00 | 43 | 1019.3 |
| 20260503185348 | 77 | 5 | 0.9 | 7.0 | 0.00 | 0.00 | 0.00 | 45 | 1019.4 |
| 20260503183601 | 77 | 5 | 1.7 | 6.1 | 0.00 | 0.00 | 0.00 | 43 | 1019.7 |
| 20260503183055 | 77 | 71 | 1.7 | 6.1 | 0.00 | 0.00 | 0.00 | 44 | 1019.8 |
| 20260503182538 | 77 | 20 | 0.9 | 6.1 | 0.00 | 0.00 | 0.00 | 45 | 1019.8 |
| 20260503181409 | 76 | 307 | 0.9 | 6.1 | 0.00 | 0.00 | 0.00 | 45 | 1019.8 |
| 20260503180910 | 76 | 19 | 0.9 | 6.1 | 0.00 | 0.00 | 0.00 | 44 | 1020.0 |
| 20260503180357 | 75 | 336 | 0.9 | 3.5 | 0.00 | 0.00 | 0.00 | 44 | 1020.0 |
| 20260503175849 | 76 | 5 | 0.9 | 5.2 | 0.00 | 0.00 | 0.00 | 43 | 1020.0 |
| 20260503175337 | 76 | 350 | 0.9 | 5.2 | 0.00 | 0.00 | 0.00 | 44 | 1020.0 |
| 20260503174839 | 76 | 333 | 1.7 | 5.2 | 0.00 | 0.00 | 0.00 | 44 | 1020.0 |
| 20260503174336 | 76 | 36 | 1.7 | 4.3 | 0.00 | 0.00 | 0.00 | 45 | 1020.1 |
| 20260503173821 | 76 | 0 | 0.9 | 6.1 | 0.00 | 0.00 | 0.00 | 46 | 1020.1 |
| 20260503173326 | 75 | 0 | 0.9 | 6.1 | 0.00 | 0.00 | 0.00 | 47 | 1020.2 |
| 20260503172819 | 75 | 18 | 0.9 | 6.1 | 0.00 | 0.00 | 0.00 | 46 | 1020.2 |
| 20260503171050 | 75 | 296 | 1.7 | 8.7 | 0.00 | 0.00 | 0.00 | 46 | 1020.4 |
| 20260503170557 | 75 | 337 | 2.6 | 8.7 | 0.00 | 0.00 | 0.00 | 46 | 1020.5 |
| 20260503150915 | 72 | 24 | 1.7 | 6.1 | 0.00 | 0.00 | 0.00 | 50 | 1021.5 |
| 20260503150405 | 72 | 5 | 1.7 | 6.1 | 0.00 | 0.00 | 0.00 | 49 | 1021.3 |
| 20260503140108 | 67 | 11 | 1.7 | 7.8 | 0.00 | 0.00 | 0.00 | 60 | 1020.9 |
| 20260503130616 | 62 | 341 | 1.7 | 6.1 | 0.00 | 0.00 | 0.00 | 73 | 1020.4 |
| 20260503110611 | 50 | 0 | 0.0 | 0.0 | 0.00 | 0.03 | 0.00 | 91 | 1019.8 |
| 20260503110107 | 50 | 0 | 0.0 | 0.0 | 0.00 | 0.03 | 0.00 | 91 | 1019.9 |
| 20260503090459 | 52 | 0 | 0.0 | 0.0 | 0.00 | 0.26 | 0.00 | 89 | 1019.1 |